sensor_id;sensor_type;location;lat;lon;timestamp;pressure;altitude;pressure_sealevel;temperature;humidity
70909;BME280;58554;52.006;5.926;2023-04-10T00:00:20;101330.09;;;7.49;61.44
70909;BME280;58554;52.006;5.926;2023-04-10T00:02:47;101337.13;;;7.49;61.58
70909;BME280;58554;52.006;5.926;2023-04-10T00:05:13;101325.81;;;7.47;61.69
70909;BME280;58554;52.006;5.926;2023-04-10T00:07:40;101329.38;;;7.46;61.62
70909;BME280;58554;52.006;5.926;2023-04-10T00:10:09;101336.47;;;7.44;61.53
70909;BME280;58554;52.006;5.926;2023-04-10T00:12:36;101331.28;;;7.41;61.65
70909;BME280;58554;52.006;5.926;2023-04-10T00:15:03;101344.44;;;7.41;61.80
70909;BME280;58554;52.006;5.926;2023-04-10T00:17:30;101338.34;;;7.39;61.70
70909;BME280;58554;52.006;5.926;2023-04-10T00:19:56;101327.84;;;7.37;61.69
70909;BME280;58554;52.006;5.926;2023-04-10T00:22:23;101318.25;;;7.36;61.80
70909;BME280;58554;52.006;5.926;2023-04-10T00:24:49;101311.25;;;7.35;61.87
70909;BME280;58554;52.006;5.926;2023-04-10T00:27:19;101309.56;;;7.34;61.89
70909;BME280;58554;52.006;5.926;2023-04-10T00:29:45;101303.44;;;7.34;61.96
70909;BME280;58554;52.006;5.926;2023-04-10T00:32:12;101296.47;;;7.32;62.09
70909;BME280;58554;52.006;5.926;2023-04-10T00:34:38;101294.63;;;7.35;62.12
70909;BME280;58554;52.006;5.926;2023-04-10T00:37:05;101292.97;;;7.32;62.09
70909;BME280;58554;52.006;5.926;2023-04-10T00:39:31;101299.13;;;7.31;62.23
70909;BME280;58554;52.006;5.926;2023-04-10T00:41:58;101290.44;;;7.29;62.30
70909;BME280;58554;52.006;5.926;2023-04-10T00:44:27;101286.09;;;7.28;62.26
70909;BME280;58554;52.006;5.926;2023-04-10T00:46:53;101275.66;;;7.25;62.46
70909;BME280;58554;52.006;5.926;2023-04-10T00:49:20;101273.13;;;7.23;62.28
70909;BME280;58554;52.006;5.926;2023-04-10T00:51:47;101272.31;;;7.21;62.46
70909;BME280;58554;52.006;5.926;2023-04-10T00:54:14;101266.28;;;7.18;62.60
70909;BME280;58554;52.006;5.926;2023-04-10T00:56:40;101262.00;;;7.15;62.57
70909;BME280;58554;52.006;5.926;2023-04-10T00:59:08;101261.19;;;7.13;62.71
70909;BME280;58554;52.006;5.926;2023-04-10T01:01:37;101247.25;;;7.11;62.95
70909;BME280;58554;52.006;5.926;2023-04-10T01:04:04;101250.84;;;7.08;62.91
70909;BME280;58554;52.006;5.926;2023-04-10T01:06:41;101241.22;;;7.07;62.98
70909;BME280;58554;52.006;5.926;2023-04-10T01:09:26;101238.66;;;7.06;63.12
70909;BME280;58554;52.006;5.926;2023-04-10T01:12:06;101256.16;;;7.07;63.14
70909;BME280;58554;52.006;5.926;2023-04-10T01:14:48;101252.69;;;7.06;63.12
70909;BME280;58554;52.006;5.926;2023-04-10T01:17:30;101252.72;;;7.05;63.33
70909;BME280;58554;52.006;5.926;2023-04-10T01:20:09;101251.78;;;7.06;63.33
70909;BME280;58554;52.006;5.926;2023-04-10T01:23:01;101246.63;;;7.04;63.28
70909;BME280;58554;52.006;5.926;2023-04-10T01:25:45;101244.88;;;7.03;63.45
70909;BME280;58554;52.006;5.926;2023-04-10T01:31:29;101245.03;;;6.99;63.51
70909;BME280;58554;52.006;5.926;2023-04-10T01:34:06;101252.13;;;6.97;63.43
70909;BME280;58554;52.006;5.926;2023-04-10T01:36:39;101244.28;;;6.95;63.70
70909;BME280;58554;52.006;5.926;2023-04-10T01:39:12;101247.03;;;6.92;63.74
70909;BME280;58554;52.006;5.926;2023-04-10T01:41:44;101244.44;;;6.90;63.69
70909;BME280;58554;52.006;5.926;2023-04-10T01:44:17;101242.78;;;6.88;63.83
70909;BME280;58554;52.006;5.926;2023-04-10T01:46:49;101245.50;;;6.85;63.86
70909;BME280;58554;52.006;5.926;2023-04-10T01:49:19;101244.66;;;6.84;63.76
70909;BME280;58554;52.006;5.926;2023-04-10T01:51:47;101235.91;;;6.84;63.79
70909;BME280;58554;52.006;5.926;2023-04-10T01:54:18;101228.13;;;6.81;63.92
70909;BME280;58554;52.006;5.926;2023-04-10T01:56:45;101241.22;;;6.82;64.17
70909;BME280;58554;52.006;5.926;2023-04-10T01:59:15;101231.69;;;6.80;64.13
70909;BME280;58554;52.006;5.926;2023-04-10T02:01:43;101237.78;;;6.80;64.07
70909;BME280;58554;52.006;5.926;2023-04-10T02:04:09;101231.63;;;6.81;64.20
70909;BME280;58554;52.006;5.926;2023-04-10T02:06:41;101226.38;;;6.81;64.16
70909;BME280;58554;52.006;5.926;2023-04-10T02:09:19;101231.63;;;6.81;64.32
70909;BME280;58554;52.006;5.926;2023-04-10T02:11:54;101228.09;;;6.82;64.42
70909;BME280;58554;52.006;5.926;2023-04-10T02:14:27;101224.47;;;6.85;64.58
70909;BME280;58554;52.006;5.926;2023-04-10T02:16:57;101226.84;;;6.93;64.23
70909;BME280;58554;52.006;5.926;2023-04-10T02:19:26;101220.66;;;6.94;64.12
70909;BME280;58554;52.006;5.926;2023-04-10T02:21:56;101215.53;;;6.90;64.05
70909;BME280;58554;52.006;5.926;2023-04-10T02:24:24;101217.34;;;6.88;64.35
70909;BME280;58554;52.006;5.926;2023-04-10T02:26:52;101211.34;;;6.85;64.36
70909;BME280;58554;52.006;5.926;2023-04-10T02:29:22;101215.06;;;6.79;64.34
70909;BME280;58554;52.006;5.926;2023-04-10T02:31:51;101207.25;;;6.76;64.44
70909;BME280;58554;52.006;5.926;2023-04-10T02:34:18;101204.75;;;6.73;64.46
70909;BME280;58554;52.006;5.926;2023-04-10T02:36:45;101204.00;;;6.69;64.47
70909;BME280;58554;52.006;5.926;2023-04-10T02:39:11;101200.56;;;6.67;64.66
70909;BME280;58554;52.006;5.926;2023-04-10T02:41:38;101195.38;;;6.64;64.59
70909;BME280;58554;52.006;5.926;2023-04-10T02:44:06;101199.00;;;6.62;64.64
70909;BME280;58554;52.006;5.926;2023-04-10T02:46:32;101197.38;;;6.58;64.78
70909;BME280;58554;52.006;5.926;2023-04-10T02:49:01;101196.56;;;6.56;64.70
70909;BME280;58554;52.006;5.926;2023-04-10T02:51:28;101194.06;;;6.53;64.84
70909;BME280;58554;52.006;5.926;2023-04-10T02:53:54;101196.78;;;6.49;64.93
70909;BME280;58554;52.006;5.926;2023-04-10T02:56:21;101195.97;;;6.47;64.93
70909;BME280;58554;52.006;5.926;2023-04-10T02:58:47;101196.03;;;6.46;64.90
70909;BME280;58554;52.006;5.926;2023-04-10T03:01:14;101194.31;;;6.45;64.91
70909;BME280;58554;52.006;5.926;2023-04-10T03:03:40;101195.22;;;6.44;65.14
70909;BME280;58554;52.006;5.926;2023-04-10T03:06:10;101192.66;;;6.42;65.00
70909;BME280;58554;52.006;5.926;2023-04-10T03:08:36;101186.59;;;6.40;65.03
70909;BME280;58554;52.006;5.926;2023-04-10T03:11:03;101193.66;;;6.38;65.31
70909;BME280;58554;52.006;5.926;2023-04-10T03:13:30;101189.38;;;6.36;65.25
70909;BME280;58554;52.006;5.926;2023-04-10T03:15:56;101185.06;;;6.33;65.20
70909;BME280;58554;52.006;5.926;2023-04-10T03:18:23;101191.31;;;6.29;65.40
70909;BME280;58554;52.006;5.926;2023-04-10T03:20:49;101194.09;;;6.24;65.42
70909;BME280;58554;52.006;5.926;2023-04-10T03:23:19;101192.44;;;6.22;65.51
70909;BME280;58554;52.006;5.926;2023-04-10T03:25:48;101195.97;;;6.21;65.57
70909;BME280;58554;52.006;5.926;2023-04-10T03:28:15;101188.19;;;6.18;65.64
70909;BME280;58554;52.006;5.926;2023-04-10T03:30:42;101197.88;;;6.16;65.94
70909;BME280;58554;52.006;5.926;2023-04-10T03:33:08;101189.25;;;6.12;65.86
70909;BME280;58554;52.006;5.926;2023-04-10T03:35:35;101193.69;;;6.10;66.13
70909;BME280;58554;52.006;5.926;2023-04-10T03:38:01;101195.56;;;6.06;66.12
70909;BME280;58554;52.006;5.926;2023-04-10T03:40:30;101192.13;;;6.04;66.19
70909;BME280;58554;52.006;5.926;2023-04-10T03:42:57;101188.69;;;6.02;66.25
70909;BME280;58554;52.006;5.926;2023-04-10T03:45:23;101187.91;;;5.99;66.22
70909;BME280;58554;52.006;5.926;2023-04-10T03:47:50;101188.88;;;5.96;66.20
70909;BME280;58554;52.006;5.926;2023-04-10T03:50:17;101181.09;;;5.93;66.30
70909;BME280;58554;52.006;5.926;2023-04-10T03:52:44;101173.31;;;5.90;66.46
70909;BME280;58554;52.006;5.926;2023-04-10T03:55:10;101182.16;;;5.87;66.43
70909;BME280;58554;52.006;5.926;2023-04-10T03:57:39;101167.34;;;5.85;66.53
70909;BME280;58554;52.006;5.926;2023-04-10T04:00:08;101170.13;;;5.80;66.78
70909;BME280;58554;52.006;5.926;2023-04-10T04:02:35;101176.28;;;5.79;66.67
70909;BME280;58554;52.006;5.926;2023-04-10T04:05:03;101166.72;;;5.77;66.66
70909;BME280;58554;52.006;5.926;2023-04-10T04:07:30;101169.44;;;5.74;66.97
70909;BME280;58554;52.006;5.926;2023-04-10T04:09:56;101171.31;;;5.70;67.02
70909;BME280;58554;52.006;5.926;2023-04-10T04:12:23;101168.78;;;5.67;66.89
70909;BME280;58554;52.006;5.926;2023-04-10T04:14:52;101167.97;;;5.65;66.96
70909;BME280;58554;52.006;5.926;2023-04-10T04:17:18;101162.84;;;5.60;67.03
70909;BME280;58554;52.006;5.926;2023-04-10T04:19:45;101154.16;;;5.58;67.21
70909;BME280;58554;52.006;5.926;2023-04-10T04:22:11;101157.75;;;5.56;67.32
70909;BME280;58554;52.006;5.926;2023-04-10T04:24:38;101160.44;;;5.54;67.31
70909;BME280;58554;52.006;5.926;2023-04-10T04:27:04;101157.00;;;5.52;67.50
70909;BME280;58554;52.006;5.926;2023-04-10T04:29:31;101153.56;;;5.50;67.39
70909;BME280;58554;52.006;5.926;2023-04-10T04:32:00;101148.34;;;5.48;67.59
70909;BME280;58554;52.006;5.926;2023-04-10T04:34:26;101147.50;;;5.48;67.60
70909;BME280;58554;52.006;5.926;2023-04-10T04:36:53;101137.06;;;5.46;67.68
70909;BME280;58554;52.006;5.926;2023-04-10T04:39:19;101143.19;;;5.45;67.58
70909;BME280;58554;52.006;5.926;2023-04-10T04:41:48;101141.47;;;5.44;67.60
70909;BME280;58554;52.006;5.926;2023-04-10T04:44:14;101139.72;;;5.45;67.72
70909;BME280;58554;52.006;5.926;2023-04-10T04:46:43;101143.25;;;5.44;67.78
70909;BME280;58554;52.006;5.926;2023-04-10T04:49:13;101143.25;;;5.44;67.99
70909;BME280;58554;52.006;5.926;2023-04-10T04:51:39;101138.00;;;5.44;67.84
70909;BME280;58554;52.006;5.926;2023-04-10T04:54:06;101145.81;;;5.45;67.72
70909;BME280;58554;52.006;5.926;2023-04-10T04:56:32;101147.50;;;5.48;67.73
70909;BME280;58554;52.006;5.926;2023-04-10T04:58:58;101142.97;;;5.53;67.91
70909;BME280;58554;52.006;5.926;2023-04-10T05:01:25;101138.41;;;5.58;67.78
70909;BME280;58554;52.006;5.926;2023-04-10T05:03:52;101129.56;;;5.62;67.60
70909;BME280;58554;52.006;5.926;2023-04-10T05:06:21;101133.81;;;5.66;67.60
70909;BME280;58554;52.006;5.926;2023-04-10T05:08:47;101128.44;;;5.71;67.58
70909;BME280;58554;52.006;5.926;2023-04-10T05:11:14;101123.13;;;5.73;67.66
70909;BME280;58554;52.006;5.926;2023-04-10T05:13:40;101121.22;;;5.78;67.48
70909;BME280;58554;52.006;5.926;2023-04-10T05:16:07;101116.78;;;5.80;67.71
70909;BME280;58554;52.006;5.926;2023-04-10T05:18:34;101118.44;;;5.82;67.72
70909;BME280;58554;52.006;5.926;2023-04-10T05:21:01;101116.63;;;5.84;67.66
70909;BME280;58554;52.006;5.926;2023-04-10T05:23:30;101117.41;;;5.88;67.43
70909;BME280;58554;52.006;5.926;2023-04-10T05:25:56;101113.84;;;5.89;67.48
70909;BME280;58554;52.006;5.926;2023-04-10T05:28:23;101111.06;;;5.94;67.50
70909;BME280;58554;52.006;5.926;2023-04-10T05:30:49;101117.09;;;5.97;67.58
70909;BME280;58554;52.006;5.926;2023-04-10T05:33:18;101120.38;;;6.04;67.48
70909;BME280;58554;52.006;5.926;2023-04-10T05:35:45;101113.22;;;6.09;67.42
70909;BME280;58554;52.006;5.926;2023-04-10T05:38:11;101106.84;;;6.16;67.23
70909;BME280;58554;52.006;5.926;2023-04-10T05:40:43;101119.72;;;6.24;67.29
70909;BME280;58554;52.006;5.926;2023-04-10T05:43:10;101120.31;;;6.32;67.05
70909;BME280;58554;52.006;5.926;2023-04-10T05:45:37;101115.72;;;6.39;67.05
70909;BME280;58554;52.006;5.926;2023-04-10T05:48:03;101112.88;;;6.45;66.97
70909;BME280;58554;52.006;5.926;2023-04-10T05:50:30;101116.13;;;6.52;66.88
70909;BME280;58554;52.006;5.926;2023-04-10T05:52:56;101109.69;;;6.60;66.98
70909;BME280;58554;52.006;5.926;2023-04-10T05:55:23;101114.69;;;6.68;66.96
70909;BME280;58554;52.006;5.926;2023-04-10T05:57:52;101116.19;;;6.75;66.73
70909;BME280;58554;52.006;5.926;2023-04-10T06:00:18;101106.28;;;6.83;66.55
70909;BME280;58554;52.006;5.926;2023-04-10T06:02:45;101113.81;;;6.93;66.44
70909;BME280;58554;52.006;5.926;2023-04-10T06:05:11;101103.75;;;7.04;66.50
70909;BME280;58554;52.006;5.926;2023-04-10T06:07:38;101096.38;;;7.14;66.08
70909;BME280;58554;52.006;5.926;2023-04-10T06:10:07;101097.78;;;7.22;66.04
70909;BME280;58554;52.006;5.926;2023-04-10T06:12:35;101097.38;;;7.33;65.94
70909;BME280;58554;52.006;5.926;2023-04-10T06:15:05;101089.97;;;7.44;65.67
70909;BME280;58554;52.006;5.926;2023-04-10T06:17:33;101081.66;;;7.55;65.53
70909;BME280;58554;52.006;5.926;2023-04-10T06:20:01;101083.81;;;7.67;65.41
70909;BME280;58554;52.006;5.926;2023-04-10T06:22:28;101083.38;;;7.78;65.09
70909;BME280;58554;52.006;5.926;2023-04-10T06:24:54;101075.03;;;7.89;65.23
70909;BME280;58554;52.006;5.926;2023-04-10T06:27:21;101072.88;;;7.99;64.81
70909;BME280;58554;52.006;5.926;2023-04-10T06:29:47;101065.44;;;8.08;64.62
70909;BME280;58554;52.006;5.926;2023-04-10T06:32:16;101069.31;;;8.20;64.60
70909;BME280;58554;52.006;5.926;2023-04-10T06:34:43;101067.81;;;8.35;64.22
70909;BME280;58554;52.006;5.926;2023-04-10T06:37:10;101064.59;;;8.49;63.97
70909;BME280;58554;52.006;5.926;2023-04-10T06:39:36;101058.63;;;8.64;63.91
70909;BME280;58554;52.006;5.926;2023-04-10T06:42:03;101061.66;;;8.76;63.82
70909;BME280;58554;52.006;5.926;2023-04-10T06:44:29;101053.19;;;8.88;63.59
70909;BME280;58554;52.006;5.926;2023-04-10T06:46:56;101052.63;;;9.00;63.25
70909;BME280;58554;52.006;5.926;2023-04-10T06:49:25;101049.56;;;9.09;62.83
70909;BME280;58554;52.006;5.926;2023-04-10T06:51:51;101047.34;;;9.19;62.72
70909;BME280;58554;52.006;5.926;2023-04-10T06:54:18;101056.56;;;9.29;62.47
70909;BME280;58554;52.006;5.926;2023-04-10T06:56:44;101051.69;;;9.39;62.34
70909;BME280;58554;52.006;5.926;2023-04-10T06:59:11;101046.66;;;9.52;61.98
70909;BME280;58554;52.006;5.926;2023-04-10T07:01:37;101041.69;;;9.65;61.78
70909;BME280;58554;52.006;5.926;2023-04-10T07:04:06;101042.78;;;9.78;61.64
70909;BME280;58554;52.006;5.926;2023-04-10T07:06:35;101023.75;;;9.89;61.45
70909;BME280;58554;52.006;5.926;2023-04-10T07:09:02;101022.19;;;10.02;61.29
70909;BME280;58554;52.006;5.926;2023-04-10T07:11:28;101009.34;;;10.12;60.88
70909;BME280;58554;52.006;5.926;2023-04-10T07:13:55;101001.56;;;10.26;60.78
70909;BME280;58554;52.006;5.926;2023-04-10T07:16:21;100999.91;;;10.41;60.43
70909;BME280;58554;52.006;5.926;2023-04-10T07:18:48;101003.50;;;10.56;60.00
70909;BME280;58554;52.006;5.926;2023-04-10T07:21:14;100988.88;;;10.66;59.76
70909;BME280;58554;52.006;5.926;2023-04-10T07:23:43;100981.16;;;10.79;59.54
70909;BME280;58554;52.006;5.926;2023-04-10T07:26:10;100982.28;;;10.91;59.61
70909;BME280;58554;52.006;5.926;2023-04-10T07:28:36;100977.41;;;10.99;58.78
70909;BME280;58554;52.006;5.926;2023-04-10T07:31:03;100967.66;;;11.00;58.47
70909;BME280;58554;52.006;5.926;2023-04-10T07:33:30;100961.19;;;11.05;58.46
70909;BME280;58554;52.006;5.926;2023-04-10T07:35:57;100958.00;;;11.14;57.87
70909;BME280;58554;52.006;5.926;2023-04-10T07:38:24;100962.13;;;11.20;57.75
70909;BME280;58554;52.006;5.926;2023-04-10T07:40:57;100946.06;;;11.23;57.72
70909;BME280;58554;52.006;5.926;2023-04-10T07:43:24;100944.69;;;11.32;57.79
70909;BME280;58554;52.006;5.926;2023-04-10T07:45:51;100940.28;;;11.47;57.83
70909;BME280;58554;52.006;5.926;2023-04-10T07:48:18;100932.06;;;11.51;57.53
70909;BME280;58554;52.006;5.926;2023-04-10T07:50:45;100928.78;;;11.62;57.38
70909;BME280;58554;52.006;5.926;2023-04-10T07:53:11;100932.88;;;11.68;57.50
70909;BME280;58554;52.006;5.926;2023-04-10T07:55:40;100929.38;;;11.67;57.27
70909;BME280;58554;52.006;5.926;2023-04-10T07:58:10;100927.84;;;11.63;57.27
70909;BME280;58554;52.006;5.926;2023-04-10T08:00:37;100912.13;;;11.60;57.45
70909;BME280;58554;52.006;5.926;2023-04-10T08:03:03;100912.41;;;11.55;57.38
70909;BME280;58554;52.006;5.926;2023-04-10T08:05:30;100923.09;;;11.54;57.29
70909;BME280;58554;52.006;5.926;2023-04-10T08:07:57;100915.50;;;11.48;57.34
70909;BME280;58554;52.006;5.926;2023-04-10T08:10:24;100913.91;;;11.45;57.35
70909;BME280;58554;52.006;5.926;2023-04-10T08:12:50;100907.75;;;11.45;57.42
70909;BME280;58554;52.006;5.926;2023-04-10T08:15:19;100910.19;;;11.48;57.60
70909;BME280;58554;52.006;5.926;2023-04-10T08:17:46;100900.22;;;11.53;57.33
70909;BME280;58554;52.006;5.926;2023-04-10T08:20:13;100900.69;;;11.60;57.58
70909;BME280;58554;52.006;5.926;2023-04-10T08:22:39;100893.22;;;11.66;57.38
70909;BME280;58554;52.006;5.926;2023-04-10T08:25:09;100894.66;;;11.72;57.06
70909;BME280;58554;52.006;5.926;2023-04-10T08:27:36;100898.75;;;11.78;57.08
70909;BME280;58554;52.006;5.926;2023-04-10T08:30:03;100896.50;;;11.86;57.05
70909;BME280;58554;52.006;5.926;2023-04-10T08:32:34;100908.13;;;11.98;57.12
70909;BME280;58554;52.006;5.926;2023-04-10T08:35:01;100902.38;;;12.05;56.75
70909;BME280;58554;52.006;5.926;2023-04-10T08:37:28;100902.84;;;12.12;56.56
70909;BME280;58554;52.006;5.926;2023-04-10T08:39:55;100905.03;;;12.20;56.16
70909;BME280;58554;52.006;5.926;2023-04-10T08:42:21;100904.72;;;12.24;55.98
70909;BME280;58554;52.006;5.926;2023-04-10T08:44:48;100895.59;;;12.30;55.71
70909;BME280;58554;52.006;5.926;2023-04-10T08:47:19;100895.28;;;12.34;55.67
70909;BME280;58554;52.006;5.926;2023-04-10T08:49:53;100896.63;;;12.42;55.44
70909;BME280;58554;52.006;5.926;2023-04-10T08:52:23;100891.88;;;12.47;54.96
70909;BME280;58554;52.006;5.926;2023-04-10T08:54:53;100897.63;;;12.53;55.20
70909;BME280;58554;52.006;5.926;2023-04-10T08:57:21;100876.84;;;12.60;55.08
70909;BME280;58554;52.006;5.926;2023-04-10T08:59:49;100880.00;;;12.67;54.87
70909;BME280;58554;52.006;5.926;2023-04-10T09:02:16;100874.16;;;12.74;54.86
70909;BME280;58554;52.006;5.926;2023-04-10T09:04:49;100873.88;;;12.79;54.89
70909;BME280;58554;52.006;5.926;2023-04-10T09:07:17;100874.13;;;12.89;54.52
70909;BME280;58554;52.006;5.926;2023-04-10T09:09:44;100877.03;;;12.99;54.65
70909;BME280;58554;52.006;5.926;2023-04-10T09:12:12;100870.28;;;13.07;54.46
70909;BME280;58554;52.006;5.926;2023-04-10T09:14:39;100871.34;;;13.17;54.09
70909;BME280;58554;52.006;5.926;2023-04-10T09:17:13;100871.88;;;13.23;53.89
70909;BME280;58554;52.006;5.926;2023-04-10T09:19:43;100865.41;;;13.27;53.85
70909;BME280;58554;52.006;5.926;2023-04-10T09:22:15;100858.84;;;13.32;53.78
70909;BME280;58554;52.006;5.926;2023-04-10T09:24:43;100858.66;;;13.35;53.77
70909;BME280;58554;52.006;5.926;2023-04-10T09:27:27;100855.28;;;13.46;53.16
70909;BME280;58554;52.006;5.926;2023-04-10T09:29:54;100856.63;;;13.52;53.57
70909;BME280;58554;52.006;5.926;2023-04-10T09:32:35;100847.25;;;13.61;53.29
70909;BME280;58554;52.006;5.926;2023-04-10T09:35:06;100837.78;;;13.69;53.41
70909;BME280;58554;52.006;5.926;2023-04-10T09:37:37;100827.13;;;13.82;53.07
70909;BME280;58554;52.006;5.926;2023-04-10T09:40:18;100821.06;;;13.93;53.06
70909;BME280;58554;52.006;5.926;2023-04-10T09:42:46;100821.47;;;14.00;52.76
70909;BME280;58554;52.006;5.926;2023-04-10T09:45:12;100815.13;;;14.02;52.41
70909;BME280;58554;52.006;5.926;2023-04-10T09:47:39;100808.72;;;14.05;52.38
70909;BME280;58554;52.006;5.926;2023-04-10T09:50:07;100800.75;;;14.05;52.28
70909;BME280;58554;52.006;5.926;2023-04-10T09:52:36;100802.22;;;14.09;52.08
70909;BME280;58554;52.006;5.926;2023-04-10T09:55:04;100795.00;;;14.11;52.06
70909;BME280;58554;52.006;5.926;2023-04-10T09:57:32;100795.59;;;14.14;52.08
70909;BME280;58554;52.006;5.926;2023-04-10T10:00:01;100792.72;;;14.17;51.73
70909;BME280;58554;52.006;5.926;2023-04-10T10:02:30;100778.69;;;14.15;51.79
70909;BME280;58554;52.006;5.926;2023-04-10T10:05:03;100779.44;;;14.17;51.56
70909;BME280;58554;52.006;5.926;2023-04-10T10:07:31;100762.63;;;14.17;51.67
70909;BME280;58554;52.006;5.926;2023-04-10T10:10:05;100759.84;;;14.18;51.35
70909;BME280;58554;52.006;5.926;2023-04-10T10:12:35;100756.34;;;14.18;51.79
70909;BME280;58554;52.006;5.926;2023-04-10T10:15:13;100754.31;;;14.22;51.46
70909;BME280;58554;52.006;5.926;2023-04-10T10:17:53;100749.00;;;14.22;51.25
70909;BME280;58554;52.006;5.926;2023-04-10T10:20:25;100746.34;;;14.22;51.39
70909;BME280;58554;52.006;5.926;2023-04-10T10:22:53;100742.69;;;14.23;51.43
70909;BME280;58554;52.006;5.926;2023-04-10T10:25:23;100735.34;;;14.26;51.60
70909;BME280;58554;52.006;5.926;2023-04-10T10:27:52;100735.88;;;14.31;51.52
70909;BME280;58554;52.006;5.926;2023-04-10T10:30:25;100743.06;;;14.42;51.56
70909;BME280;58554;52.006;5.926;2023-04-10T10:32:53;100738.03;;;14.50;51.26
70909;BME280;58554;52.006;5.926;2023-04-10T10:35:20;100728.84;;;14.54;50.97
70909;BME280;58554;52.006;5.926;2023-04-10T10:37:49;100735.41;;;14.62;51.29
70909;BME280;58554;52.006;5.926;2023-04-10T10:40:19;100723.47;;;14.67;51.13
70909;BME280;58554;52.006;5.926;2023-04-10T10:42:59;100722.66;;;14.78;51.16
70909;BME280;58554;52.006;5.926;2023-04-10T10:45:38;100719.19;;;14.89;51.13
70909;BME280;58554;52.006;5.926;2023-04-10T10:48:07;100710.25;;;15.01;51.02
70909;BME280;58554;52.006;5.926;2023-04-10T10:50:50;100705.09;;;15.11;50.33
70909;BME280;58554;52.006;5.926;2023-04-10T10:53:33;100692.59;;;15.23;50.25
70909;BME280;58554;52.006;5.926;2023-04-10T10:56:34;100690.69;;;15.25;49.74
70909;BME280;58554;52.006;5.926;2023-04-10T10:59:01;100685.00;;;15.18;50.06
70909;BME280;58554;52.006;5.926;2023-04-10T11:01:28;100680.63;;;15.17;49.78
70909;BME280;58554;52.006;5.926;2023-04-10T11:03:55;100687.28;;;15.23;50.22
70909;BME280;58554;52.006;5.926;2023-04-10T11:06:50;100673.25;;;15.32;49.75
70909;BME280;58554;52.006;5.926;2023-04-10T11:09:43;100677.00;;;15.41;49.57
70909;BME280;58554;52.006;5.926;2023-04-10T11:12:10;100667.53;;;15.48;49.89
70909;BME280;58554;52.006;5.926;2023-04-10T11:14:38;100666.31;;;15.52;49.64
70909;BME280;58554;52.006;5.926;2023-04-10T11:17:05;100669.72;;;15.54;49.72
70909;BME280;58554;52.006;5.926;2023-04-10T11:19:56;100653.84;;;15.64;49.00
70909;BME280;58554;52.006;5.926;2023-04-10T11:22:26;100648.75;;;15.72;49.59
70909;BME280;58554;52.006;5.926;2023-04-10T11:24:55;100641.84;;;15.81;49.69
70909;BME280;58554;52.006;5.926;2023-04-10T11:27:43;100640.00;;;15.92;48.97
70909;BME280;58554;52.006;5.926;2023-04-10T11:30:28;100633.06;;;16.01;49.27
70909;BME280;58554;52.006;5.926;2023-04-10T11:33:00;100629.63;;;16.10;49.32
70909;BME280;58554;52.006;5.926;2023-04-10T11:35:29;100623.28;;;16.23;49.16
70909;BME280;58554;52.006;5.926;2023-04-10T11:38:16;100628.31;;;16.37;48.79
70909;BME280;58554;52.006;5.926;2023-04-10T11:40:53;100602.09;;;16.42;48.76
70909;BME280;58554;52.006;5.926;2023-04-10T11:43:20;100595.50;;;16.46;48.94
70909;BME280;58554;52.006;5.926;2023-04-10T11:45:47;100594.28;;;16.50;48.59
70909;BME280;58554;52.006;5.926;2023-04-10T11:48:15;100584.44;;;16.51;48.41
70909;BME280;58554;52.006;5.926;2023-04-10T11:50:42;100587.09;;;16.51;48.17
70909;BME280;58554;52.006;5.926;2023-04-10T11:53:19;100586.41;;;16.49;47.71
70909;BME280;58554;52.006;5.926;2023-04-10T11:55:47;100580.59;;;16.44;47.98
70909;BME280;58554;52.006;5.926;2023-04-10T11:58:23;100582.72;;;16.50;47.84
70909;BME280;58554;52.006;5.926;2023-04-10T12:01:00;100578.69;;;16.55;47.58
70909;BME280;58554;52.006;5.926;2023-04-10T12:03:33;100581.84;;;16.60;47.64
70909;BME280;58554;52.006;5.926;2023-04-10T12:06:01;100581.31;;;16.67;47.59
70909;BME280;58554;52.006;5.926;2023-04-10T12:08:33;100581.88;;;16.70;47.40
70909;BME280;58554;52.006;5.926;2023-04-10T12:11:01;100564.59;;;16.74;47.53
70909;BME280;58554;52.006;5.926;2023-04-10T12:13:29;100562.16;;;16.83;47.31
70909;BME280;58554;52.006;5.926;2023-04-10T12:15:58;100561.22;;;16.93;47.37
70909;BME280;58554;52.006;5.926;2023-04-10T12:18:27;100554.63;;;16.97;47.14
70909;BME280;58554;52.006;5.926;2023-04-10T12:20:55;100554.50;;;16.99;46.90
70909;BME280;58554;52.006;5.926;2023-04-10T12:23:22;100554.38;;;17.00;47.05
70909;BME280;58554;52.006;5.926;2023-04-10T12:26:07;100542.97;;;17.08;46.77
70909;BME280;58554;52.006;5.926;2023-04-10T12:28:39;100538.94;;;17.14;46.94
70909;BME280;58554;52.006;5.926;2023-04-10T12:31:07;100532.78;;;17.23;46.73
70909;BME280;58554;52.006;5.926;2023-04-10T12:33:35;100518.16;;;17.27;46.61
70909;BME280;58554;52.006;5.926;2023-04-10T12:36:01;100523.69;;;17.35;46.46
70909;BME280;58554;52.006;5.926;2023-04-10T12:38:35;100512.41;;;17.32;45.58
70909;BME280;58554;52.006;5.926;2023-04-10T12:41:10;100511.13;;;17.26;46.03
70909;BME280;58554;52.006;5.926;2023-04-10T12:43:39;100512.53;;;17.30;46.05
70909;BME280;58554;52.006;5.926;2023-04-10T12:46:08;100497.91;;;17.34;46.11
70909;BME280;58554;52.006;5.926;2023-04-10T12:48:35;100509.88;;;17.40;45.74
70909;BME280;58554;52.006;5.926;2023-04-10T12:51:02;100487.09;;;17.46;45.95
70909;BME280;58554;52.006;5.926;2023-04-10T12:53:29;100494.72;;;17.50;45.64
70909;BME280;58554;52.006;5.926;2023-04-10T12:56:00;100487.66;;;17.59;45.82
70909;BME280;58554;52.006;5.926;2023-04-10T12:58:31;100490.06;;;17.62;45.51
70909;BME280;58554;52.006;5.926;2023-04-10T13:01:02;100485.97;;;17.58;45.27
70909;BME280;58554;52.006;5.926;2023-04-10T13:03:29;100484.56;;;17.54;45.21
70909;BME280;58554;52.006;5.926;2023-04-10T13:05:58;100474.41;;;17.48;45.02
70909;BME280;58554;52.006;5.926;2023-04-10T13:08:25;100462.63;;;17.40;44.81